createdAt,value
2018-09-02T00:01:50.761Z,89.23
2018-09-02T00:04:19.378Z,89.23
2018-09-02T00:06:47.996Z,88.92
2018-09-02T00:09:16.632Z,88.92
2018-09-02T00:11:45.269Z,89.36
2018-09-02T00:14:13.857Z,89.11
2018-09-02T00:16:42.900Z,89.52
2018-09-02T00:19:11.614Z,89.55
2018-09-02T00:21:40.293Z,89.78
2018-09-02T00:24:08.917Z,89.95
2018-09-02T00:26:37.522Z,89.68
2018-09-02T00:29:06.152Z,89.74
2018-09-02T00:31:35.566Z,89.56
2018-09-02T00:34:05.325Z,90.49
2018-09-02T00:36:33.968Z,89.60
2018-09-02T00:39:02.735Z,90.57
2018-09-02T00:41:31.481Z,89.88
2018-09-02T00:44:00.339Z,90.04
2018-09-02T00:46:29.095Z,90.29
2018-09-02T00:48:58.055Z,90.13
2018-09-02T00:51:26.667Z,90.67
2018-09-02T00:53:55.422Z,90.95
2018-09-02T00:56:24.707Z,90.65
2018-09-02T00:58:53.359Z,90.46
2018-09-02T01:01:22.211Z,90.92
2018-09-02T01:03:50.885Z,91.09
2018-09-02T01:06:19.687Z,91.84
2018-09-02T01:08:48.504Z,91.22
2018-09-02T01:11:17.223Z,91.63
2018-09-02T01:13:45.838Z,91.87
2018-09-02T01:16:14.535Z,91.34
2018-09-02T01:18:43.201Z,91.60
2018-09-02T01:21:11.888Z,91.91
2018-09-02T01:23:40.775Z,91.69
2018-09-02T01:26:09.375Z,91.28
2018-09-02T01:28:38.049Z,91.77
2018-09-02T01:31:07.118Z,92.30
2018-09-02T01:33:35.810Z,91.68
2018-09-02T01:36:04.678Z,92.41
2018-09-02T01:38:33.384Z,92.06
2018-09-02T01:41:02.935Z,92.50
2018-09-02T01:43:31.669Z,92.58
2018-09-02T01:46:00.291Z,92.46
2018-09-02T01:48:29.276Z,92.57
2018-09-02T01:50:57.909Z,92.81
2018-09-02T01:53:27.045Z,92.74
2018-09-02T01:55:56.049Z,92.33
2018-09-02T01:58:24.690Z,93.12
2018-09-02T02:00:53.546Z,92.47
2018-09-02T02:03:22.947Z,93.00
2018-09-02T02:05:51.834Z,92.90
2018-09-02T02:08:21.628Z,92.57
2018-09-02T02:10:50.255Z,92.49
2018-09-02T02:13:19.301Z,93.10
2018-09-02T02:15:47.960Z,93.55
2018-09-02T02:18:16.807Z,93.02
2018-09-02T02:20:45.449Z,93.45
2018-09-02T02:23:14.235Z,93.14
2018-09-02T02:25:43.035Z,93.18
2018-09-02T02:28:12.042Z,93.27
2018-09-02T02:30:41.041Z,93.23
2018-09-02T02:33:09.866Z,93.40
2018-09-02T02:35:39.735Z,93.72
2018-09-02T02:38:08.822Z,93.32
2018-09-02T02:40:37.598Z,94.10
2018-09-02T02:43:06.695Z,93.90
2018-09-02T02:45:35.409Z,93.54
2018-09-02T02:48:04.135Z,93.77
2018-09-02T02:50:32.947Z,93.78
2018-09-02T02:53:04.492Z,93.64
2018-09-02T02:55:34.523Z,94.35
2018-09-02T02:58:03.635Z,93.75
2018-09-02T03:00:33.382Z,94.01
2018-09-02T03:03:02.111Z,93.73
2018-09-02T03:05:31.115Z,94.29
2018-09-02T03:07:59.806Z,93.70
2018-09-02T03:10:28.421Z,94.23
2018-09-02T03:12:57.161Z,93.72
2018-09-02T03:15:26.061Z,93.47
2018-09-02T03:17:55.169Z,93.93
2018-09-02T03:20:23.920Z,94.14
2018-09-02T03:22:52.617Z,93.53
2018-09-02T03:25:21.326Z,93.81
2018-09-02T03:27:49.961Z,93.94
2018-09-02T03:30:18.607Z,93.54
2018-09-02T03:32:47.187Z,93.97
2018-09-02T03:35:15.866Z,93.55
2018-09-02T03:37:44.509Z,94.02
2018-09-02T03:40:13.158Z,93.11
2018-09-02T03:42:41.814Z,93.81
2018-09-02T03:45:10.636Z,93.62
2018-09-02T03:47:39.363Z,94.25
2018-09-02T03:50:08.052Z,94.03
2018-09-02T03:52:36.812Z,94.09
2018-09-02T03:55:05.645Z,94.49
2018-09-02T03:57:34.318Z,94.54
2018-09-02T04:00:03.031Z,94.30
2018-09-02T04:02:32.067Z,94.15
2018-09-02T04:05:00.819Z,94.43
2018-09-02T04:07:29.557Z,94.48
2018-09-02T04:09:59.028Z,94.61
2018-09-02T04:12:27.962Z,94.50
2018-09-02T04:14:56.700Z,94.77
2018-09-02T04:17:25.415Z,94.06
2018-09-02T04:19:54.031Z,94.52
2018-09-02T04:22:22.795Z,94.01
2018-09-02T04:24:51.722Z,94.04
2018-09-02T04:27:20.364Z,95.12
2018-09-02T04:29:49.116Z,94.68
2018-09-02T04:32:17.757Z,94.55
2018-09-02T04:34:46.458Z,94.43
2018-09-02T04:37:15.431Z,94.74
2018-09-02T04:39:44.025Z,94.85
2018-09-02T04:42:12.629Z,95.04
2018-09-02T04:44:41.403Z,94.62
2018-09-02T04:47:10.083Z,94.30
2018-09-02T04:49:38.716Z,94.71
2018-09-02T04:52:07.530Z,94.55
2018-09-02T04:54:36.164Z,94.55
2018-09-02T04:57:05.060Z,94.34
2018-09-02T04:59:33.643Z,94.40
2018-09-02T05:02:04.992Z,94.11
2018-09-02T05:04:33.653Z,94.67
2018-09-02T05:07:02.351Z,94.19
2018-09-02T05:09:31.241Z,93.67
2018-09-02T05:11:59.895Z,93.62
2018-09-02T05:14:28.503Z,93.50
2018-09-02T05:16:57.120Z,94.15
2018-09-02T05:19:25.772Z,93.69
2018-09-02T05:21:54.516Z,94.02
2018-09-02T05:24:23.168Z,93.57
2018-09-02T05:26:52.020Z,93.35
2018-09-02T05:29:20.672Z,92.94
2018-09-02T05:31:49.264Z,93.29
2018-09-02T05:34:17.898Z,93.39
2018-09-02T05:36:46.664Z,92.86
2018-09-02T05:39:15.440Z,92.68
2018-09-02T05:41:44.137Z,92.71
2018-09-02T05:44:13.017Z,92.02
2018-09-02T05:46:41.671Z,92.09
2018-09-02T05:49:10.284Z,92.12
2018-09-02T05:51:39.162Z,92.01
2018-09-02T05:54:07.783Z,92.56
2018-09-02T05:56:36.444Z,91.20
2018-09-02T05:59:05.236Z,91.84
2018-09-02T06:01:33.893Z,90.95
2018-09-02T06:04:02.494Z,90.62
2018-09-02T06:06:31.205Z,89.84
2018-09-02T06:09:00.003Z,89.71
2018-09-02T06:11:28.689Z,89.42
2018-09-02T06:13:57.405Z,88.53
2018-09-02T06:16:26.057Z,89.36
2018-09-02T06:18:54.674Z,89.42
2018-09-02T06:21:23.261Z,89.02
2018-09-02T06:23:52.040Z,88.91
2018-09-02T06:26:20.612Z,88.32
2018-09-02T06:28:49.225Z,87.87
2018-09-02T06:31:18.072Z,86.46
2018-09-02T06:33:46.689Z,88.54
2018-09-02T06:36:15.315Z,86.94
2018-09-02T06:38:44.150Z,86.16
2018-09-02T06:41:12.999Z,85.04
2018-09-02T06:43:41.941Z,84.17
2018-09-02T06:46:10.832Z,84.05
2018-09-02T06:48:39.644Z,85.03
2018-09-02T06:51:08.331Z,84.86
2018-09-02T06:53:37.005Z,85.57
2018-09-02T06:56:05.641Z,85.92
2018-09-02T06:58:34.449Z,85.46
2018-09-02T07:01:03.143Z,84.56
2018-09-02T07:03:31.785Z,84.64
2018-09-02T07:06:00.426Z,83.45
2018-09-02T07:08:29.052Z,82.44
2018-09-02T07:10:57.787Z,82.45
2018-09-02T07:13:26.445Z,81.53
2018-09-02T07:15:55.115Z,78.87
2018-09-02T07:18:23.788Z,79.93
2018-09-02T07:20:52.584Z,79.64
2018-09-02T07:23:21.598Z,78.66
2018-09-02T07:25:50.293Z,77.99
2018-09-02T07:28:19.439Z,78.31
2018-09-02T07:30:48.143Z,79.88
2018-09-02T07:33:17.137Z,78.14
2018-09-02T07:35:45.810Z,78.00
2018-09-02T07:38:14.513Z,77.44
2018-09-02T07:40:43.310Z,77.01
2018-09-02T07:43:11.958Z,75.58
2018-09-02T07:45:40.614Z,75.90
2018-09-02T07:48:09.323Z,74.62
2018-09-02T07:50:37.949Z,75.06
2018-09-02T07:53:06.591Z,74.13
2018-09-02T07:55:35.240Z,73.91
2018-09-02T07:58:04.092Z,72.87
2018-09-02T08:00:32.741Z,72.47
2018-09-02T08:03:01.640Z,72.58
2018-09-02T08:05:30.325Z,72.31
2018-09-02T08:07:58.974Z,71.50
2018-09-02T08:10:27.640Z,71.31
2018-09-02T08:12:56.420Z,71.16
2018-09-02T08:15:25.219Z,70.45
2018-09-02T08:17:53.817Z,68.99
2018-09-02T08:20:22.547Z,68.71
2018-09-02T08:22:51.274Z,68.00
2018-09-02T08:25:19.932Z,66.08
2018-09-02T08:27:50.044Z,66.35
2018-09-02T08:30:18.683Z,65.92
2018-09-02T08:32:47.834Z,64.34
2018-09-02T08:35:16.507Z,64.68
2018-09-02T08:37:45.420Z,63.66
2018-09-02T08:40:14.907Z,62.58
2018-09-02T08:42:43.551Z,63.38
2018-09-02T08:45:12.386Z,62.53
2018-09-02T08:47:41.031Z,62.92
2018-09-02T08:50:09.727Z,61.77
2018-09-02T08:52:38.411Z,62.93
2018-09-02T08:55:07.078Z,63.48
2018-09-02T08:57:35.759Z,62.26
2018-09-02T09:00:04.578Z,60.60
2018-09-02T09:02:33.243Z,60.05
2018-09-02T09:05:01.883Z,59.16
2018-09-02T09:07:31.846Z,58.90
2018-09-02T09:10:00.396Z,59.64
2018-09-02T09:12:29.118Z,57.83
2018-09-02T09:14:57.936Z,58.26
2018-09-02T09:17:26.607Z,56.79
2018-09-02T09:19:55.233Z,57.30
2018-09-02T09:22:23.874Z,56.88
2018-09-02T09:24:52.520Z,55.44
2018-09-02T09:27:21.159Z,54.90
2018-09-02T09:29:49.771Z,53.79
2018-09-02T09:32:18.465Z,54.84
2018-09-02T09:34:47.090Z,52.77
2018-09-02T09:37:15.707Z,53.91
2018-09-02T09:39:44.348Z,53.69
2018-09-02T09:42:13.005Z,53.22
2018-09-02T09:44:41.647Z,50.10
2018-09-02T09:47:10.329Z,50.48
2018-09-02T09:49:39.327Z,49.66
2018-09-02T09:52:08.096Z,48.62
2018-09-02T09:54:37.148Z,49.43
2018-09-02T09:57:05.813Z,48.98
2018-09-02T09:59:34.503Z,48.62
2018-09-02T10:02:03.368Z,47.69
2018-09-02T10:04:32.060Z,47.98
2018-09-02T10:07:00.703Z,48.50
2018-09-02T10:09:29.338Z,48.28
2018-09-02T10:11:57.959Z,45.78
2018-09-02T10:14:26.622Z,46.69
2018-09-02T10:16:55.271Z,46.90
2018-09-02T10:19:24.565Z,45.83
2018-09-02T10:21:53.217Z,46.17
2018-09-02T10:24:21.827Z,45.78
2018-09-02T10:26:50.513Z,45.47
2018-09-02T10:29:19.180Z,44.89
2018-09-02T10:31:47.833Z,44.25
2018-09-02T10:34:16.457Z,44.14
2018-09-02T10:36:45.159Z,41.90
2018-09-02T10:39:13.800Z,42.75
2018-09-02T10:41:42.498Z,43.75
2018-09-02T10:44:11.118Z,43.94
2018-09-02T10:46:39.750Z,43.44
2018-09-02T10:49:08.453Z,43.90
2018-09-02T10:51:37.122Z,43.80
2018-09-02T10:54:06.759Z,44.17
2018-09-02T10:56:35.400Z,45.61
2018-09-02T10:59:04.050Z,44.68
2018-09-02T11:01:32.763Z,42.52
2018-09-02T11:04:01.508Z,42.84
2018-09-02T11:06:30.169Z,42.68
2018-09-02T11:08:58.836Z,42.57
2018-09-02T11:11:27.566Z,42.98
2018-09-02T11:13:56.385Z,43.10
2018-09-02T11:16:25.017Z,42.27
2018-09-02T11:18:53.672Z,41.39
2018-09-02T11:21:22.285Z,39.89
2018-09-02T11:23:50.948Z,40.29
2018-09-02T11:26:19.569Z,40.72
2018-09-02T11:28:48.288Z,40.38
2018-09-02T11:31:16.927Z,38.87
2018-09-02T11:33:45.555Z,40.71
2018-09-02T11:36:14.194Z,40.37
2018-09-02T11:38:43.013Z,40.11
2018-09-02T11:41:12.007Z,41.18
2018-09-02T11:43:40.608Z,41.44
2018-09-02T11:46:09.222Z,39.86
2018-09-02T11:48:40.852Z,39.49
2018-09-02T11:51:09.509Z,40.16
2018-09-02T11:53:38.104Z,39.55
2018-09-02T11:56:06.788Z,38.52
2018-09-02T11:58:35.851Z,37.90
2018-09-02T12:01:04.528Z,39.78
2018-09-02T12:03:33.270Z,40.38
2018-09-02T12:06:01.958Z,38.93
2018-09-02T12:08:30.652Z,39.15
2018-09-02T12:10:59.276Z,39.23
2018-09-02T12:13:27.971Z,38.79
2018-09-02T12:15:56.602Z,38.54
2018-09-02T12:18:25.389Z,37.80
2018-09-02T12:20:54.096Z,38.01
2018-09-02T12:23:22.774Z,37.90
2018-09-02T12:25:51.449Z,39.89
2018-09-02T12:28:20.134Z,39.19
2018-09-02T12:30:48.785Z,36.31
2018-09-02T12:33:17.423Z,34.40
2018-09-02T12:35:46.111Z,34.58
2018-09-02T12:38:14.935Z,35.09
2018-09-02T12:40:43.868Z,31.19
2018-09-02T12:43:12.603Z,34.43
2018-09-02T12:45:41.395Z,34.15
2018-09-02T12:48:10.169Z,35.69
2018-09-02T12:50:38.803Z,31.92
2018-09-02T12:53:07.465Z,28.36
2018-09-02T12:55:36.214Z,32.10
2018-09-02T12:58:05.220Z,34.12
2018-09-02T13:00:34.705Z,31.11
2018-09-02T13:03:05.767Z,32.55
2018-09-02T13:05:34.415Z,30.18
2018-09-02T13:08:03.258Z,31.59
2018-09-02T13:10:32.012Z,30.74
2018-09-02T13:13:00.650Z,27.99
2018-09-02T13:15:29.344Z,31.32
2018-09-02T13:17:58.061Z,33.87
2018-09-02T13:20:26.760Z,33.30
2018-09-02T13:22:55.512Z,35.04
2018-09-02T13:25:24.285Z,32.01
2018-09-02T13:27:53.039Z,31.43
2018-09-02T13:30:21.768Z,30.38
2018-09-02T13:32:50.367Z,32.69
2018-09-02T13:35:19.041Z,34.47
2018-09-02T13:37:47.688Z,34.83
2018-09-02T13:40:16.535Z,33.56
2018-09-02T13:42:45.470Z,33.82
2018-09-02T13:45:14.185Z,33.99
2018-09-02T13:47:42.922Z,33.90
2018-09-02T13:50:11.671Z,32.98
2018-09-02T13:52:40.347Z,33.41
2018-09-02T13:55:08.973Z,31.22
2018-09-02T13:57:37.649Z,29.31
2018-09-02T14:00:06.808Z,28.77
2018-09-02T14:02:35.473Z,29.37
2018-09-02T14:05:04.203Z,28.71
2018-09-02T14:07:32.955Z,29.79
2018-09-02T14:10:01.616Z,29.73
2018-09-02T14:12:30.469Z,30.38
2018-09-02T14:14:59.277Z,31.35
2018-09-02T14:17:27.904Z,31.20
2018-09-02T14:19:56.884Z,30.91
2018-09-02T14:22:25.531Z,30.71
2018-09-02T14:24:54.130Z,28.16
2018-09-02T14:27:22.770Z,30.60
2018-09-02T14:29:51.518Z,30.10
2018-09-02T14:32:20.178Z,30.85
2018-09-02T14:34:48.915Z,29.96
2018-09-02T14:37:17.553Z,35.15
2018-09-02T14:39:46.431Z,33.63
2018-09-02T14:42:15.193Z,31.45
2018-09-02T14:44:43.859Z,29.83
2018-09-02T14:47:12.772Z,26.79
2018-09-02T14:49:41.444Z,26.24
2018-09-02T14:52:10.283Z,28.14
2018-09-02T14:54:39.136Z,27.49
2018-09-02T14:57:07.824Z,28.34
2018-09-02T14:59:36.643Z,27.05
2018-09-02T15:02:05.436Z,25.19
2018-09-02T15:04:34.077Z,27.25
2018-09-02T15:07:03.110Z,30.09
2018-09-02T15:09:31.832Z,28.40
2018-09-02T15:12:00.473Z,27.95
2018-09-02T15:14:29.128Z,27.49
2018-09-02T15:16:57.817Z,26.72
2018-09-02T15:19:26.445Z,25.45
2018-09-02T15:21:55.145Z,27.70
2018-09-02T15:24:23.799Z,29.74
2018-09-02T15:26:52.485Z,28.46
2018-09-02T15:29:21.260Z,28.08
2018-09-02T15:31:51.092Z,25.59
2018-09-02T15:34:19.983Z,29.98
2018-09-02T15:36:48.677Z,28.65
2018-09-02T15:39:17.396Z,24.95
2018-09-02T15:41:46.662Z,24.09
2018-09-02T15:44:15.519Z,25.06
2018-09-02T15:46:44.140Z,25.31
2018-09-02T15:49:12.915Z,25.62
2018-09-02T15:51:41.655Z,25.71
2018-09-02T15:54:10.295Z,30.26
2018-09-02T15:56:38.905Z,29.59
2018-09-02T15:59:07.700Z,28.02
2018-09-02T16:01:37.469Z,25.40
2018-09-02T16:04:06.131Z,28.71
2018-09-02T16:06:35.756Z,30.66
2018-09-02T16:09:06.818Z,25.73
2018-09-02T16:11:36.305Z,27.88
2018-09-02T16:14:07.389Z,27.11
2018-09-02T16:16:37.732Z,26.95
2018-09-02T16:19:07.512Z,28.08
2018-09-02T16:21:36.175Z,29.01
2018-09-02T16:24:05.855Z,26.77
2018-09-02T16:26:34.888Z,27.95
2018-09-02T16:29:04.369Z,29.93
2018-09-02T16:31:34.712Z,28.16
2018-09-02T16:34:04.285Z,30.32
2018-09-02T16:36:32.958Z,27.81
2018-09-02T16:39:01.684Z,29.48
2018-09-02T16:41:30.461Z,28.28
2018-09-02T16:43:59.402Z,28.25
2018-09-02T16:46:28.115Z,28.47
2018-09-02T16:48:56.818Z,31.13
2018-09-02T16:51:25.780Z,29.80
2018-09-02T16:53:54.476Z,31.46
2018-09-02T16:56:23.115Z,29.22
2018-09-02T16:58:51.794Z,28.91
2018-09-02T17:01:20.510Z,28.71
2018-09-02T17:04:07.850Z,29.52
2018-09-02T17:06:37.400Z,29.73
2018-09-02T17:09:09.392Z,31.81
2018-09-02T17:11:38.487Z,32.34
2018-09-02T17:14:07.522Z,31.65
2018-09-02T17:16:36.188Z,34.29
2018-09-02T17:19:08.221Z,34.66
2018-09-02T17:21:36.949Z,33.73
2018-09-02T17:24:05.663Z,33.22
2018-09-02T17:26:34.490Z,34.85
2018-09-02T17:29:03.124Z,34.67
2018-09-02T17:31:31.768Z,36.22
2018-09-02T17:34:00.467Z,37.45
2018-09-02T17:36:29.172Z,39.25
2018-09-02T17:38:58.104Z,39.45
2018-09-02T17:41:26.746Z,40.81
2018-09-02T17:43:55.505Z,41.56
2018-09-02T17:46:24.176Z,41.78
2018-09-02T17:48:52.790Z,42.77
2018-09-02T17:51:22.142Z,40.60
2018-09-02T17:53:50.833Z,42.83
2018-09-02T17:56:19.528Z,42.06
2018-09-02T17:58:48.296Z,43.13
2018-09-02T18:01:17.042Z,43.97
2018-09-02T18:03:45.816Z,44.32
2018-09-02T18:06:14.529Z,45.13
2018-09-02T18:08:43.802Z,47.09
2018-09-02T18:11:12.485Z,47.72
2018-09-02T18:13:41.123Z,47.78
2018-09-02T18:16:10.424Z,48.13
2018-09-02T18:18:40.067Z,48.51
2018-09-02T18:21:08.827Z,49.99
2018-09-02T18:23:37.617Z,49.50
2018-09-02T18:26:06.365Z,49.83
2018-09-02T18:28:37.770Z,50.21
2018-09-02T18:31:06.524Z,50.62
2018-09-02T18:33:35.207Z,51.25
2018-09-02T18:36:03.971Z,50.97
2018-09-02T18:38:32.605Z,52.18
2018-09-02T18:41:01.632Z,52.11
2018-09-02T18:43:30.310Z,52.86
2018-09-02T18:45:58.917Z,52.68
2018-09-02T18:48:27.584Z,52.41
2018-09-02T18:50:56.236Z,52.16
2018-09-02T18:53:25.102Z,52.79
2018-09-02T18:55:54.126Z,53.30
2018-09-02T18:58:22.829Z,53.51
2018-09-02T19:00:51.499Z,53.33
2018-09-02T19:03:20.250Z,53.20
2018-09-02T19:05:48.962Z,54.15
2018-09-02T19:08:17.703Z,54.01
2018-09-02T19:10:46.622Z,53.80
2018-09-02T19:13:15.293Z,54.09
2018-09-02T19:15:44.002Z,54.46
2018-09-02T19:18:12.858Z,54.36
2018-09-02T19:20:43.086Z,54.48
2018-09-02T19:23:11.818Z,54.23
2018-09-02T19:25:40.714Z,54.15
2018-09-02T19:28:09.372Z,54.34
2018-09-02T19:30:38.058Z,53.72
2018-09-02T19:33:06.973Z,54.35
2018-09-02T19:35:35.593Z,54.61
2018-09-02T19:38:04.468Z,54.54
2018-09-02T19:40:33.314Z,54.16
2018-09-02T19:43:02.075Z,54.28
2018-09-02T19:45:30.729Z,53.78
2018-09-02T19:47:59.614Z,54.65
2018-09-02T19:50:28.368Z,53.88
2018-09-02T19:52:57.204Z,54.13
2018-09-02T19:55:25.931Z,54.28
2018-09-02T19:57:54.740Z,54.21
2018-09-02T20:00:23.477Z,54.80
2018-09-02T20:02:52.227Z,55.02
2018-09-02T20:05:21.007Z,55.39
2018-09-02T20:07:49.668Z,54.62
2018-09-02T20:10:18.598Z,55.35
2018-09-02T20:12:47.682Z,55.37
2018-09-02T20:15:16.365Z,55.85
2018-09-02T20:17:45.220Z,55.78
2018-09-02T20:20:13.912Z,55.66
2018-09-02T20:22:42.639Z,56.62
2018-09-02T20:25:11.354Z,56.58
2018-09-02T20:27:39.980Z,56.25
2018-09-02T20:30:08.669Z,56.79
2018-09-02T20:32:37.439Z,56.60
2018-09-02T20:35:06.120Z,57.08
2018-09-02T20:37:34.796Z,57.80
2018-09-02T20:40:03.424Z,57.74
2018-09-02T20:42:32.046Z,57.16
2018-09-02T20:45:00.796Z,57.46
2018-09-02T20:47:29.567Z,57.54
2018-09-02T20:49:58.549Z,58.78
2018-09-02T20:52:27.246Z,58.22
2018-09-02T20:54:55.900Z,58.17
2018-09-02T20:57:24.624Z,58.85
2018-09-02T20:59:53.248Z,58.70
2018-09-02T21:02:22.064Z,59.27
2018-09-02T21:04:50.850Z,59.01
2018-09-02T21:07:19.523Z,59.72
2018-09-02T21:09:48.234Z,59.77
2018-09-02T21:12:16.838Z,59.83
2018-09-02T21:14:45.701Z,60.10
2018-09-02T21:17:14.300Z,60.23
2018-09-02T21:19:42.971Z,60.51
2018-09-02T21:22:11.608Z,60.80
2018-09-02T21:24:40.200Z,61.58
2018-09-02T21:27:08.866Z,61.75
2018-09-02T21:29:37.492Z,63.21
2018-09-02T21:32:06.413Z,62.66
2018-09-02T21:34:35.424Z,63.10
2018-09-02T21:37:04.050Z,63.77
2018-09-02T21:39:32.680Z,63.43
2018-09-02T21:42:02.896Z,64.02
2018-09-02T21:44:31.572Z,64.90
2018-09-02T21:47:03.253Z,64.89
2018-09-02T21:49:31.868Z,65.83
2018-09-02T21:52:00.643Z,65.83
2018-09-02T21:54:29.373Z,66.86
2018-09-02T21:56:59.219Z,66.99
2018-09-02T21:59:27.860Z,66.80
2018-09-02T22:01:56.608Z,67.72
2018-09-02T22:04:29.250Z,67.87
2018-09-02T22:06:57.941Z,68.91
2018-09-02T22:09:26.597Z,68.85
2018-09-02T22:11:55.204Z,69.21
2018-09-02T22:14:23.833Z,68.45
2018-09-02T22:16:52.783Z,69.60
2018-09-02T22:19:21.422Z,69.57
2018-09-02T22:21:50.053Z,69.70
2018-09-02T22:24:18.704Z,69.93
2018-09-02T22:26:47.346Z,70.54
2018-09-02T22:29:16.130Z,70.63
2018-09-02T22:31:45.332Z,72.00
2018-09-02T22:34:13.949Z,72.69
2018-09-02T22:36:42.550Z,72.22
2018-09-02T22:39:11.154Z,72.85
2018-09-02T22:41:40.215Z,72.89
2018-09-02T22:44:08.974Z,73.40
2018-09-02T22:46:37.616Z,73.52
2018-09-02T22:49:06.325Z,74.20
2018-09-02T22:51:35.367Z,73.44
2018-09-02T22:54:03.990Z,74.39
2018-09-02T22:56:34.772Z,73.89
2018-09-02T22:59:03.582Z,74.30
2018-09-02T23:01:32.443Z,73.70
2018-09-02T23:04:01.103Z,74.18
2018-09-02T23:06:29.922Z,74.47
2018-09-02T23:09:00.942Z,74.13
2018-09-02T23:11:29.574Z,74.88
2018-09-02T23:13:58.384Z,74.41
2018-09-02T23:16:27.048Z,75.09
2018-09-02T23:18:55.802Z,75.29
2018-09-02T23:21:24.576Z,75.13
2018-09-02T23:23:55.423Z,75.58
2018-09-02T23:26:24.072Z,75.13
2018-09-02T23:28:55.251Z,75.34
2018-09-02T23:31:23.909Z,75.13
2018-09-02T23:33:52.714Z,75.17
2018-09-02T23:36:21.809Z,75.56
2018-09-02T23:38:50.569Z,75.91
2018-09-02T23:41:19.178Z,75.61
2018-09-02T23:43:48.030Z,76.01
2018-09-02T23:46:16.650Z,76.21
2018-09-02T23:48:45.316Z,76.64
2018-09-02T23:51:14.149Z,75.54
2018-09-02T23:53:42.791Z,75.91
2018-09-02T23:56:13.852Z,75.92
2018-09-02T23:58:42.540Z,76.40
